Time;durP1;ratioP1;P1;durP2;ratioP2;P2;SDS_P1;SDS_P2;PMS_P1;PMS_P2;Temp;Humidity;BMP_temperature;BMP_pressure;BME280_temperature;BME280_humidity;BME280_pressure;Samples;Min_cycle;Max_cycle;Signal;HPM_P1;HPM_P2
2022/01/30 00:00:37;;;;;;;22.98;4.30;;;5.70;99.90;;;;;;4988466;28;20027;-71
2022/01/30 00:03:03;;;;;;;11.30;2.80;;;5.80;99.90;;;;;;4988174;28;20042;-69
2022/01/30 00:05:30;;;;;;;13.38;3.08;;;5.80;99.90;;;;;;4970655;28;20123;-69
2022/01/30 00:07:56;;;;;;;18.15;2.67;;;5.90;99.90;;;;;;4968836;28;20083;-72
2022/01/30 00:10:23;;;;;;;7.95;2.55;;;6.10;99.90;;;;;;4968672;28;20046;-72
2022/01/30 00:12:53;;;;;;;12.70;3.75;;;6.00;99.90;;;;;;4951648;28;20027;-72
2022/01/30 00:15:33;;;;;;;16.90;3.30;;;6.10;99.90;;;;;;4968930;28;20058;-73
2022/01/30 00:18:09;;;;;;;12.98;4.03;;;6.10;99.90;;;;;;4967252;28;20049;-71
2022/01/30 00:20:36;;;;;;;22.88;3.45;;;6.00;99.90;;;;;;4968449;28;20031;-71
2022/01/30 00:23:25;;;;;;;27.98;3.05;;;6.00;99.90;;;;;;4968633;28;20115;-69
2022/01/30 00:25:53;;;;;;;13.25;3.53;;;6.00;99.90;;;;;;4968637;28;20114;-71
2022/01/30 00:28:22;;;;;;;12.07;3.47;;;6.10;99.90;;;;;;4967365;28;20027;-69
2022/01/30 00:30:48;;;;;;;11.80;3.15;;;6.10;99.90;;;;;;4972598;28;20026;-70
2022/01/30 00:33:14;;;;;;;9.23;3.53;;;6.10;99.90;;;;;;4968192;28;20041;-69
2022/01/30 00:35:40;;;;;;;14.70;2.75;;;6.10;99.90;;;;;;4970343;28;20019;-72
2022/01/30 00:38:15;;;;;;;27.15;3.90;;;6.10;99.90;;;;;;4987637;28;20083;-70
2022/01/30 00:40:47;;;;;;;8.75;2.58;;;6.20;99.90;;;;;;4987836;28;20070;-70
2022/01/30 00:43:13;;;;;;;13.02;2.72;;;6.20;99.90;;;;;;4987345;28;20031;-72
2022/01/30 00:45:40;;;;;;;6.68;1.70;;;6.20;99.90;;;;;;4987371;28;20031;-71
2022/01/30 00:48:06;;;;;;;23.35;2.67;;;6.30;99.90;;;;;;4987740;28;20031;-70
2022/01/30 00:50:32;;;;;;;13.85;2.53;;;6.20;99.90;;;;;;4987030;28;20494;-70
2022/01/30 00:52:59;;;;;;;5.38;1.58;;;6.30;99.90;;;;;;4987079;28;20491;-70
2022/01/30 00:55:28;;;;;;;12.98;2.03;;;6.30;99.90;;;;;;4987113;28;20030;-71
2022/01/30 00:57:56;;;;;;;18.40;4.00;;;6.30;99.90;;;;;;4986807;28;20030;-68
2022/01/30 01:00:23;;;;;;;18.98;3.38;;;6.30;99.90;;;;;;4969774;28;20054;-72
2022/01/30 01:02:48;;;;;;;17.58;2.72;;;6.30;99.90;;;;;;4987060;28;20042;-71
2022/01/30 01:05:14;;;;;;;26.23;3.47;;;6.30;99.90;;;;;;4987265;28;20093;-68
2022/01/30 01:07:46;;;;;;;11.35;2.40;;;6.40;99.90;;;;;;4986315;28;20062;-72
2022/01/30 01:10:34;;;;;;;9.40;1.73;;;6.40;99.90;;;;;;4986912;28;20031;-73
2022/01/30 01:23:45;;;;;;;27.95;2.67;;;6.30;99.90;;;;;;4986482;28;20074;-71
2022/01/30 01:26:11;;;;;;;23.98;3.28;;;6.50;99.90;;;;;;4986592;28;20034;-73
2022/01/30 01:28:37;;;;;;;13.43;3.10;;;6.50;99.90;;;;;;4986692;28;20042;-70
2022/01/30 01:31:03;;;;;;;22.60;2.40;;;6.50;99.90;;;;;;4986570;28;20027;-69
2022/01/30 01:36:10;;;;;;;13.30;3.05;;;6.60;99.90;;;;;;4986206;28;20110;-72
2022/01/30 01:38:35;;;;;;;30.65;3.42;;;6.40;99.90;;;;;;4986751;28;20026;-71
2022/01/30 01:41:05;;;;;;;13.77;2.78;;;6.40;99.90;;;;;;4986315;28;20055;-71
2022/01/30 01:43:31;;;;;;;23.65;3.60;;;6.40;99.90;;;;;;4985708;28;20043;-70
2022/01/30 01:45:59;;;;;;;17.85;3.53;;;6.40;99.90;;;;;;4986392;28;20034;-71
2022/01/30 01:48:25;;;;;;;10.50;2.42;;;6.40;99.90;;;;;;4985909;28;20026;-72
2022/01/30 01:50:55;;;;;;;14.18;2.95;;;6.30;99.90;;;;;;4968675;28;20065;-71
2022/01/30 01:53:24;;;;;;;9.80;1.55;;;6.30;99.90;;;;;;4968321;28;20112;-73
2022/01/30 01:55:50;;;;;;;13.82;2.00;;;6.30;99.90;;;;;;4968438;28;20046;-71
2022/01/30 01:58:16;;;;;;;13.68;2.17;;;6.30;99.90;;;;;;4968704;28;20058;-70
2022/01/30 02:00:42;;;;;;;12.23;2.53;;;6.20;99.90;;;;;;4986375;28;20030;-74
2022/01/30 02:03:10;;;;;;;11.73;1.77;;;6.20;99.90;;;;;;4986206;28;20070;-72
2022/01/30 02:05:39;;;;;;;6.72;2.00;;;6.20;99.90;;;;;;4985748;28;20027;-69
2022/01/30 02:08:27;;;;;;;4.30;1.23;;;6.20;99.90;;;;;;4986234;28;20388;-69
2022/01/30 02:11:00;;;;;;;14.85;2.05;;;6.10;99.90;;;;;;4985682;28;20033;-70
2022/01/30 02:25:24;;;;;;;6.13;1.75;;;5.90;99.90;;;;;;4985438;28;20104;-74
2022/01/30 02:27:25;;;;;;;12.40;2.40;;;5.80;99.90;;;;;;4975041;28;20066;-68
2022/01/30 02:29:52;;;;;;;25.00;3.58;;;5.80;99.90;;;;;;4985948;28;20053;-69
2022/01/30 02:32:18;;;;;;;12.82;3.15;;;5.80;99.90;;;;;;4985908;28;20034;-69
2022/01/30 02:34:44;;;;;;;9.18;2.80;;;5.80;99.90;;;;;;4967982;28;20030;-72
2022/01/30 02:37:13;;;;;;;12.52;2.72;;;5.80;99.90;;;;;;4985723;28;20035;-71
2022/01/30 02:39:39;;;;;;;8.18;1.58;;;5.80;99.90;;;;;;4985690;28;20019;-69
2022/01/30 02:42:05;;;;;;;17.40;3.90;;;5.80;99.90;;;;;;4985376;28;20037;-72
2022/01/30 02:47:06;;;;;;;19.10;3.53;;;5.90;99.90;;;;;;4985138;28;20050;-70
2022/01/30 02:50:07;;;;;;;21.80;4.72;;;6.00;99.90;;;;;;4985778;28;20035;-72
2022/01/30 02:52:36;;;;;;;31.05;4.15;;;6.00;99.90;;;;;;4985066;28;20030;-72
2022/01/30 02:55:02;;;;;;;15.50;4.30;;;6.10;99.90;;;;;;4985403;28;20058;-70
2022/01/30 02:57:27;;;;;;;23.17;2.67;;;6.10;99.90;;;;;;4988093;28;20019;-71
2022/01/30 02:59:53;;;;;;;22.90;2.90;;;6.20;99.90;;;;;;4989345;28;20080;-69
2022/01/30 03:02:19;;;;;;;18.83;2.72;;;6.20;99.90;;;;;;4989107;28;20050;-69
2022/01/30 03:04:44;;;;;;;16.65;2.40;;;6.20;99.90;;;;;;4989390;28;20031;-69
2022/01/30 03:07:10;;;;;;;15.52;4.90;;;6.10;99.90;;;;;;4988983;28;20027;-69
2022/01/30 03:09:36;;;;;;;20.33;3.65;;;6.10;99.90;;;;;;4971348;28;20031;-71
2022/01/30 03:12:06;;;;;;;9.95;1.48;;;6.00;99.90;;;;;;4989076;28;20128;-72
2022/01/30 03:14:31;;;;;;;9.02;1.88;;;5.50;99.90;;;;;;4989282;28;20035;-68
2022/01/30 03:16:57;;;;;;;7.97;2.10;;;5.10;99.90;;;;;;4988918;28;20420;-71
2022/01/30 03:19:22;;;;;;;20.73;2.58;;;5.00;99.90;;;;;;4988740;28;20066;-72
2022/01/30 03:21:51;;;;;;;11.73;1.98;;;4.90;99.90;;;;;;4988774;28;20022;-73
2022/01/30 03:24:16;;;;;;;8.98;2.88;;;4.90;99.90;;;;;;4971504;28;20023;-69
2022/01/30 03:26:42;;;;;;;19.50;4.30;;;4.90;99.90;;;;;;4988949;28;20448;-69
2022/01/30 03:29:09;;;;;;;13.50;2.80;;;4.90;99.90;;;;;;4988769;28;20318;-68
2022/01/30 03:31:37;;;;;;;16.33;2.42;;;4.90;99.90;;;;;;4988658;28;20038;-69
2022/01/30 03:34:04;;;;;;;17.35;3.47;;;4.90;99.90;;;;;;4988958;28;20038;-70
2022/01/30 03:36:29;;;;;;;34.70;3.05;;;5.00;99.90;;;;;;4971045;28;21057;-70
2022/01/30 03:38:55;;;;;;;24.52;2.70;;;5.20;99.90;;;;;;4988112;28;20030;-69
2022/01/30 03:41:21;;;;;;;23.65;4.47;;;5.20;99.90;;;;;;4988698;28;20081;-71
2022/01/30 03:43:46;;;;;;;8.38;3.00;;;5.30;99.90;;;;;;4988959;28;20066;-70
2022/01/30 03:46:12;;;;;;;31.15;4.15;;;5.40;99.90;;;;;;4988591;28;20101;-72
2022/01/30 03:48:38;;;;;;;12.60;3.85;;;5.60;99.90;;;;;;4988766;28;20610;-71
2022/01/30 03:51:03;;;;;;;18.23;3.92;;;5.60;99.90;;;;;;4988640;28;20038;-72
2022/01/30 03:53:31;;;;;;;18.58;5.22;;;5.70;99.90;;;;;;4988042;28;20062;-73
2022/01/30 03:55:57;;;;;;;22.25;3.45;;;5.80;99.90;;;;;;4988412;28;20023;-74
2022/01/30 03:58:22;;;;;;;18.00;2.80;;;5.80;99.90;;;;;;4988317;28;20117;-72
2022/01/30 04:00:49;;;;;;;15.65;2.83;;;5.90;99.90;;;;;;4987746;28;20031;-73
2022/01/30 04:03:14;;;;;;;10.57;2.58;;;5.90;99.90;;;;;;4988004;28;20120;-71
2022/01/30 04:05:40;;;;;;;19.58;3.20;;;5.80;99.90;;;;;;4988114;28;20030;-74
2022/01/30 04:08:06;;;;;;;34.03;3.35;;;5.90;99.90;;;;;;4987757;28;20039;-70
2022/01/30 04:10:33;;;;;;;12.60;2.58;;;5.90;99.90;;;;;;4987781;28;20062;-69
2022/01/30 04:12:59;;;;;;;9.60;3.17;;;5.80;99.90;;;;;;4987860;28;20089;-74
2022/01/30 04:15:28;;;;;;;11.48;2.92;;;5.80;99.90;;;;;;4970375;28;20062;-72
2022/01/30 04:17:54;;;;;;;14.85;4.28;;;5.90;99.90;;;;;;4987856;28;20089;-70
2022/01/30 04:20:20;;;;;;;19.25;4.07;;;5.90;99.90;;;;;;4987663;28;20031;-71
2022/01/30 04:22:46;;;;;;;21.95;2.45;;;5.90;99.90;;;;;;4987932;28;20134;-73
2022/01/30 04:25:12;;;;;;;22.80;2.13;;;5.90;99.90;;;;;;4987751;28;20077;-73
2022/01/30 04:27:38;;;;;;;15.65;2.95;;;6.00;99.90;;;;;;4988016;28;20484;-71
2022/01/30 04:30:05;;;;;;;15.00;2.88;;;6.00;99.90;;;;;;4987848;28;20027;-70
2022/01/30 04:32:33;;;;;;;9.85;2.53;;;6.00;99.90;;;;;;4987900;28;20029;-72
2022/01/30 04:35:00;;;;;;;15.93;3.08;;;6.00;99.90;;;;;;4987569;28;20151;-70
2022/01/30 04:37:51;;;;;;;13.65;2.42;;;6.00;99.90;;;;;;4987667;28;20090;-70
2022/01/30 04:55:07;;;;;;;20.20;4.13;;;6.00;99.90;;;;;;4986854;28;20061;-71
2022/01/30 05:09:15;;;;;;;22.02;2.72;;;5.80;99.90;;;;;;4956310;28;20086;-71
2022/01/30 05:11:42;;;;;;;17.58;3.88;;;5.80;99.90;;;;;;4969973;28;20373;-72
2022/01/30 05:14:08;;;;;;;8.02;2.92;;;5.80;99.90;;;;;;4987256;28;20034;-70
2022/01/30 05:16:35;;;;;;;21.52;3.33;;;5.70;99.90;;;;;;4986920;28;20031;-71
2022/01/30 05:19:01;;;;;;;26.85;3.80;;;5.70;99.90;;;;;;4986327;28;20027;-72
2022/01/30 05:21:26;;;;;;;24.25;3.22;;;5.60;99.90;;;;;;4986456;28;20091;-71
2022/01/30 05:23:52;;;;;;;10.05;2.55;;;5.60;99.90;;;;;;4969297;28;20039;-70
2022/01/30 05:26:22;;;;;;;16.67;3.05;;;5.60;99.90;;;;;;4986173;28;20030;-72
2022/01/30 05:28:48;;;;;;;18.30;3.67;;;5.60;99.90;;;;;;4986792;28;20039;-70
2022/01/30 05:31:14;;;;;;;11.80;3.08;;;5.60;99.90;;;;;;4986646;28;20034;-70
2022/01/30 05:33:40;;;;;;;21.15;3.95;;;5.60;99.90;;;;;;4986815;28;20043;-71
2022/01/30 05:36:07;;;;;;;21.50;4.47;;;5.60;99.90;;;;;;4984886;28;20038;-69
2022/01/30 05:38:33;;;;;;;35.05;4.30;;;5.50;99.90;;;;;;4986073;28;20027;-69
2022/01/30 05:40:59;;;;;;;11.02;3.45;;;5.60;99.90;;;;;;4986600;28;20450;-70
2022/01/30 05:43:30;;;;;;;10.35;2.17;;;5.60;99.90;;;;;;4986652;28;20078;-71
2022/01/30 05:46:07;;;;;;;20.52;5.50;;;5.60;99.90;;;;;;4986521;28;20023;-71
2022/01/30 05:48:33;;;;;;;23.27;3.88;;;5.60;99.90;;;;;;4986719;28;20025;-71
2022/01/30 05:50:59;;;;;;;19.25;2.50;;;5.60;99.90;;;;;;4986571;28;20057;-70
2022/01/30 05:53:25;;;;;;;9.93;2.30;;;5.70;99.90;;;;;;4986106;28;20047;-69
2022/01/30 05:55:51;;;;;;;24.30;2.92;;;5.70;99.90;;;;;;4986612;28;20030;-69
2022/01/30 05:58:17;;;;;;;27.20;4.25;;;5.60;99.90;;;;;;4986069;28;20110;-70
2022/01/30 06:00:42;;;;;;;18.17;3.65;;;5.70;99.90;;;;;;4986102;28;20080;-71
2022/01/30 06:03:08;;;;;;;32.05;4.25;;;5.80;99.90;;;;;;4986425;28;20045;-70
2022/01/30 06:05:34;;;;;;;19.33;4.22;;;5.70;99.90;;;;;;4985912;28;20055;-70
2022/01/30 06:08:09;;;;;;;24.50;4.05;;;5.70;99.90;;;;;;4986218;28;20031;-69
2022/01/30 06:10:35;;;;;;;27.55;3.10;;;5.70;99.90;;;;;;4985983;28;20031;-70
2022/01/30 06:13:01;;;;;;;16.95;3.17;;;5.70;99.90;;;;;;4985741;28;20035;-70
2022/01/30 06:15:27;;;;;;;14.38;4.43;;;5.80;99.90;;;;;;4985416;28;20030;-68
2022/01/30 06:17:52;;;;;;;10.50;2.17;;;5.60;99.90;;;;;;4985797;28;20038;-70
2022/01/30 06:20:18;;;;;;;20.27;2.70;;;5.60;99.90;;;;;;4985815;28;20038;-71
2022/01/30 06:22:44;;;;;;;40.53;4.70;;;5.60;99.90;;;;;;4986110;28;20399;-72
2022/01/30 06:25:10;;;;;;;29.92;5.50;;;5.60;99.90;;;;;;4985874;28;20034;-71
2022/01/30 06:27:36;;;;;;;18.38;2.60;;;5.60;99.90;;;;;;4985992;28;20041;-71
2022/01/30 06:30:04;;;;;;;22.33;3.17;;;5.60;99.90;;;;;;4968541;28;20031;-71
2022/01/30 06:32:30;;;;;;;11.95;2.53;;;5.50;99.90;;;;;;4985860;28;20468;-69
2022/01/30 06:34:56;;;;;;;18.05;3.17;;;5.50;99.90;;;;;;4985613;28;20075;-70
2022/01/30 06:37:22;;;;;;;21.60;4.18;;;5.50;99.90;;;;;;4985420;28;20046;-69
2022/01/30 06:39:48;;;;;;;5.63;1.40;;;5.50;99.90;;;;;;4985519;28;20023;-70
2022/01/30 06:42:13;;;;;;;14.70;2.22;;;5.40;99.90;;;;;;4985954;28;20069;-71
2022/01/30 06:44:42;;;;;;;14.48;2.03;;;5.40;99.90;;;;;;4985836;28;20030;-72
2022/01/30 06:47:08;;;;;;;14.55;2.33;;;5.40;99.90;;;;;;4986040;28;20043;-71
2022/01/30 06:49:34;;;;;;;10.55;2.20;;;5.40;99.90;;;;;;4985578;28;20027;-70
2022/01/30 06:52:00;;;;;;;12.80;2.15;;;5.40;99.90;;;;;;4983849;28;20039;-70
2022/01/30 06:54:25;;;;;;;6.80;2.78;;;5.30;99.90;;;;;;4985448;28;20414;-71
2022/01/30 06:56:51;;;;;;;15.00;2.72;;;5.30;99.90;;;;;;4967900;28;20102;-69
2022/01/30 06:59:17;;;;;;;15.23;2.65;;;5.40;99.90;;;;;;4985743;28;20038;-69
2022/01/30 07:01:42;;;;;;;21.45;2.63;;;5.40;99.90;;;;;;4985786;28;20034;-71
2022/01/30 07:04:12;;;;;;;6.47;1.60;;;5.40;99.90;;;;;;4968438;28;20078;-70
2022/01/30 07:06:38;;;;;;;11.20;2.78;;;5.50;99.90;;;;;;4985626;28;20094;-69
2022/01/30 07:09:03;;;;;;;14.00;2.15;;;5.50;99.90;;;;;;4985528;28;20037;-70
2022/01/30 07:11:29;;;;;;;7.97;1.67;;;5.70;99.90;;;;;;4985646;28;20023;-70
2022/01/30 07:13:54;;;;;;;6.20;1.83;;;5.60;99.90;;;;;;4976122;28;20070;-73
2022/01/30 07:16:20;;;;;;;7.03;1.38;;;5.60;99.90;;;;;;4974131;28;20034;-70
2022/01/30 07:18:49;;;;;;;4.57;1.75;;;5.60;99.90;;;;;;4984504;28;20030;-71
2022/01/30 07:21:14;;;;;;;11.23;1.63;;;5.60;99.90;;;;;;4982229;28;20117;-69
2022/01/30 07:23:41;;;;;;;17.77;2.17;;;5.60;99.90;;;;;;4985194;28;20472;-70
2022/01/30 07:26:07;;;;;;;6.72;1.63;;;5.70;99.90;;;;;;4984503;28;20035;-70
2022/01/30 07:28:32;;;;;;;14.45;3.05;;;5.70;99.90;;;;;;4984416;28;20097;-69
2022/01/30 07:30:58;;;;;;;6.93;2.47;;;5.80;99.90;;;;;;4984584;28;20026;-71
2022/01/30 07:33:24;;;;;;;17.02;3.30;;;5.70;99.90;;;;;;4984987;28;20058;-72
2022/01/30 07:35:53;;;;;;;16.63;2.42;;;5.70;99.90;;;;;;4984933;28;20079;-69
2022/01/30 07:38:21;;;;;;;18.83;3.42;;;5.60;99.90;;;;;;4983465;28;20027;-70
2022/01/30 07:40:47;;;;;;;12.63;2.30;;;5.70;99.90;;;;;;4985106;28;20053;-69
2022/01/30 07:43:14;;;;;;;8.75;2.05;;;5.70;99.90;;;;;;4985132;28;20082;-69
2022/01/30 07:45:40;;;;;;;17.38;3.47;;;5.80;99.90;;;;;;4986275;28;20037;-72
2022/01/30 07:48:05;;;;;;;17.33;3.45;;;5.80;99.90;;;;;;4987898;28;20110;-70
2022/01/30 07:50:31;;;;;;;13.27;2.03;;;5.80;99.90;;;;;;4986686;28;20784;-69
2022/01/30 07:52:56;;;;;;;18.65;3.17;;;5.80;99.90;;;;;;4988125;28;20057;-68
2022/01/30 07:55:22;;;;;;;12.35;2.90;;;5.80;99.90;;;;;;4967257;28;20424;-69
2022/01/30 07:57:48;;;;;;;18.45;4.07;;;5.90;99.90;;;;;;4969234;28;20031;-70
2022/01/30 08:00:15;;;;;;;23.70;3.22;;;5.80;99.90;;;;;;4966770;28;20067;-68
2022/01/30 08:02:41;;;;;;;32.70;3.30;;;5.90;99.90;;;;;;4968073;28;20099;-70
2022/01/30 08:05:07;;;;;;;28.88;2.25;;;5.90;99.90;;;;;;4968442;28;20031;-70
2022/01/30 08:07:33;;;;;;;13.48;4.40;;;5.90;99.90;;;;;;4968949;28;20034;-70
2022/01/30 08:09:59;;;;;;;23.35;2.92;;;5.90;99.90;;;;;;4968749;28;20055;-69
2022/01/30 08:12:24;;;;;;;20.48;3.83;;;5.90;99.90;;;;;;4967925;28;20035;-69
2022/01/30 08:14:50;;;;;;;25.38;5.03;;;5.90;99.90;;;;;;4967279;28;20456;-69
2022/01/30 08:17:21;;;;;;;15.48;2.70;;;5.90;99.90;;;;;;4967971;28;20031;-69
2022/01/30 08:19:48;;;;;;;18.05;3.65;;;5.90;99.90;;;;;;4968068;28;20078;-71
2022/01/30 08:22:14;;;;;;;17.23;3.38;;;6.00;99.90;;;;;;4951290;29;20059;-68
2022/01/30 08:24:39;;;;;;;13.02;2.83;;;6.00;99.90;;;;;;4968852;28;20031;-70
2022/01/30 08:27:06;;;;;;;11.82;3.70;;;6.00;99.90;;;;;;4950559;29;20046;-69
2022/01/30 08:29:32;;;;;;;11.30;4.15;;;6.10;99.90;;;;;;4968638;28;20034;-70
2022/01/30 08:31:58;;;;;;;17.95;3.80;;;6.20;99.90;;;;;;4967100;28;20044;-69
2022/01/30 08:34:24;;;;;;;19.95;3.55;;;6.20;99.90;;;;;;4968033;28;20035;-72
2022/01/30 08:36:50;;;;;;;26.58;3.60;;;6.20;99.90;;;;;;4968536;28;20024;-70
2022/01/30 08:39:16;;;;;;;14.43;4.05;;;6.20;99.90;;;;;;4968016;28;20074;-70
2022/01/30 08:41:42;;;;;;;11.32;3.88;;;6.30;99.90;;;;;;4949974;29;20059;-69
2022/01/30 08:44:08;;;;;;;40.17;5.70;;;6.40;99.90;;;;;;4966582;28;20039;-70
2022/01/30 08:46:33;;;;;;;19.45;2.90;;;6.40;99.90;;;;;;4968150;28;20031;-70
2022/01/30 08:48:59;;;;;;;36.00;5.72;;;6.40;99.90;;;;;;4949988;28;20032;-70
2022/01/30 08:51:25;;;;;;;29.52;3.78;;;6.30;99.90;;;;;;4967634;28;20038;-70
2022/01/30 08:53:50;;;;;;;13.15;3.03;;;6.30;99.90;;;;;;4966855;28;20056;-68
2022/01/30 08:56:16;;;;;;;18.55;3.60;;;6.30;99.90;;;;;;4969230;28;20038;-69
2022/01/30 08:58:43;;;;;;;29.83;2.47;;;6.30;99.90;;;;;;4987251;28;20047;-70
2022/01/30 09:01:09;;;;;;;31.52;3.75;;;6.30;99.90;;;;;;4987406;28;20511;-69
2022/01/30 09:03:34;;;;;;;31.40;4.13;;;6.60;99.90;;;;;;4986389;28;20053;-71
2022/01/30 09:06:00;;;;;;;16.58;3.70;;;6.80;99.90;;;;;;4967565;28;20935;-70
2022/01/30 09:08:25;;;;;;;18.88;3.35;;;7.00;99.90;;;;;;4986561;28;20113;-72
2022/01/30 09:10:51;;;;;;;15.95;4.43;;;7.20;99.90;;;;;;4986265;28;20019;-72
2022/01/30 09:13:17;;;;;;;12.20;3.88;;;7.30;99.90;;;;;;4978238;28;20030;-72
2022/01/30 09:15:43;;;;;;;19.17;3.50;;;7.20;99.90;;;;;;4985730;28;20054;-73
2022/01/30 09:18:11;;;;;;;15.55;3.25;;;7.10;99.90;;;;;;4984987;28;20065;-69
2022/01/30 09:20:40;;;;;;;18.17;5.10;;;7.10;99.90;;;;;;4970107;28;20031;-70
2022/01/30 09:23:06;;;;;;;17.98;4.10;;;7.00;99.90;;;;;;4985862;28;20438;-70
2022/01/30 09:25:32;;;;;;;23.55;3.65;;;7.10;99.90;;;;;;4987137;28;20023;-69
2022/01/30 09:27:58;;;;;;;17.55;3.13;;;7.10;99.90;;;;;;4979881;28;20037;-70
2022/01/30 09:30:24;;;;;;;10.00;2.70;;;7.30;99.90;;;;;;4970534;28;20051;-71
2022/01/30 09:32:50;;;;;;;13.98;4.22;;;7.40;99.90;;;;;;4976156;28;20046;-71
2022/01/30 09:35:16;;;;;;;13.25;3.75;;;7.40;99.90;;;;;;4969133;28;20464;-70
2022/01/30 09:37:46;;;;;;;15.02;3.05;;;7.30;99.90;;;;;;4986797;28;20026;-70
2022/01/30 09:40:14;;;;;;;14.70;4.07;;;7.20;99.90;;;;;;4966215;28;20042;-69
2022/01/30 09:42:45;;;;;;;16.05;3.20;;;7.30;99.90;;;;;;4986687;28;20031;-69
2022/01/30 09:45:15;;;;;;;13.57;3.22;;;7.30;99.90;;;;;;4986013;28;20046;-70
2022/01/30 09:47:45;;;;;;;27.75;4.93;;;7.20;99.90;;;;;;4967549;28;20027;-70
2022/01/30 09:50:16;;;;;;;9.52;2.30;;;7.30;99.90;;;;;;4967179;28;20502;-72
2022/01/30 09:52:46;;;;;;;13.43;2.83;;;7.20;99.90;;;;;;4983884;28;20051;-68
2022/01/30 09:55:12;;;;;;;14.32;2.90;;;7.10;99.90;;;;;;4984861;28;20042;-70
2022/01/30 09:57:41;;;;;;;14.18;3.67;;;7.10;99.90;;;;;;4986178;28;20035;-69
2022/01/30 10:00:08;;;;;;;26.70;3.42;;;7.10;99.90;;;;;;4986246;28;20039;-69
2022/01/30 10:02:34;;;;;;;16.27;4.07;;;7.10;99.90;;;;;;4985987;28;20077;-69
2022/01/30 10:05:00;;;;;;;10.98;3.83;;;7.00;99.90;;;;;;4985753;28;20042;-70
2022/01/30 10:07:48;;;;;;;22.27;4.07;;;6.90;99.90;;;;;;4979254;28;20078;-68
2022/01/30 10:10:17;;;;;;;29.95;4.53;;;7.10;99.90;;;;;;4980289;28;20058;-72
2022/01/30 10:12:59;;;;;;;34.08;3.90;;;7.40;99.90;;;;;;4986094;28;20089;-70
2022/01/30 10:15:25;;;;;;;18.60;3.53;;;7.70;99.90;;;;;;4984820;28;20041;-70
2022/01/30 10:17:51;;;;;;;23.45;2.90;;;7.80;99.90;;;;;;4982943;28;20058;-71
2022/01/30 10:20:19;;;;;;;32.78;4.72;;;7.60;99.90;;;;;;4977404;28;20043;-71
2022/01/30 10:22:53;;;;;;;25.35;4.63;;;7.80;99.90;;;;;;4949407;28;20062;-70
2022/01/30 10:25:25;;;;;;;44.75;6.05;;;8.00;99.90;;;;;;4949425;28;20031;-70
2022/01/30 10:28:18;;;;;;;31.00;5.10;;;8.20;99.90;;;;;;4982407;28;20062;-68
2022/01/30 10:30:53;;;;;;;20.90;4.35;;;8.50;99.90;;;;;;4968598;28;20030;-70
2022/01/30 10:33:37;;;;;;;31.58;4.50;;;8.60;99.90;;;;;;4985676;28;20023;-72
2022/01/30 10:36:27;;;;;;;34.70;5.13;;;8.70;99.90;;;;;;4985420;28;20035;-71
2022/01/30 10:39:16;;;;;;;24.80;3.17;;;8.80;99.90;;;;;;4985505;28;20083;-70
2022/01/30 10:41:52;;;;;;;40.22;3.60;;;9.00;99.90;;;;;;4966317;28;20408;-71
2022/01/30 10:44:19;;;;;;;16.40;4.28;;;9.10;99.90;;;;;;4966236;28;20035;-70
2022/01/30 10:46:48;;;;;;;8.20;2.78;;;9.10;99.90;;;;;;4966092;28;20391;-72
2022/01/30 10:49:19;;;;;;;22.55;4.60;;;9.20;99.90;;;;;;4966368;28;20035;-71
2022/01/30 10:51:56;;;;;;;23.60;4.15;;;9.30;99.90;;;;;;4975727;28;20154;-71
2022/01/30 10:54:25;;;;;;;27.38;3.97;;;9.30;99.90;;;;;;4982981;28;20043;-71
2022/01/30 10:57:02;;;;;;;15.40;2.60;;;9.30;99.90;;;;;;4984693;28;20033;-69
2022/01/30 10:59:28;;;;;;;14.75;3.22;;;9.30;99.90;;;;;;4985557;28;20027;-71
2022/01/30 11:01:54;;;;;;;11.45;2.92;;;9.40;99.90;;;;;;4985491;28;20027;-71
2022/01/30 11:04:31;;;;;;;22.95;3.72;;;9.70;99.90;;;;;;4984436;28;20042;-70
2022/01/30 11:07:02;;;;;;;14.35;2.25;;;9.90;99.90;;;;;;4984539;28;20058;-71
2022/01/30 11:09:36;;;;;;;23.13;3.22;;;9.70;99.90;;;;;;4985275;28;20035;-70
2022/01/30 11:12:06;;;;;;;21.60;4.32;;;9.40;99.90;;;;;;4985597;28;20027;-71
2022/01/30 11:14:39;;;;;;;11.43;3.00;;;9.20;99.90;;;;;;4984563;28;20027;-71
2022/01/30 11:17:08;;;;;;;22.85;4.50;;;9.10;99.90;;;;;;4968653;28;20039;-70
2022/01/30 11:19:38;;;;;;;19.52;4.53;;;9.10;99.90;;;;;;4989283;28;20590;-70
2022/01/30 11:22:11;;;;;;;21.42;3.33;;;9.40;99.90;;;;;;4989448;28;20499;-69
2022/01/30 11:24:59;;;;;;;16.27;2.67;;;9.50;99.90;;;;;;4989078;28;20031;-70
2022/01/30 11:27:24;;;;;;;22.83;3.38;;;9.40;99.90;;;;;;4986890;28;20081;-70
2022/01/30 11:29:54;;;;;;;16.55;3.88;;;9.50;99.90;;;;;;4988658;28;20058;-72
2022/01/30 11:32:22;;;;;;;14.07;3.38;;;9.90;99.90;;;;;;4987287;28;20031;-71
2022/01/30 11:34:49;;;;;;;9.10;2.10;;;10.00;99.90;;;;;;4987905;28;20031;-72
2022/01/30 11:37:17;;;;;;;15.27;3.55;;;10.10;99.90;;;;;;4988197;28;20077;-74
2022/01/30 11:39:49;;;;;;;7.30;2.80;;;10.30;99.90;;;;;;4988236;28;20031;-72
2022/01/30 11:42:25;;;;;;;16.95;2.83;;;10.40;99.90;;;;;;4988449;28;20452;-73
2022/01/30 11:45:24;;;;;;;17.95;3.17;;;10.00;99.90;;;;;;4982833;28;20030;-71
2022/01/30 11:47:52;;;;;;;22.95;3.10;;;9.50;99.90;;;;;;4984767;28;20030;-71
2022/01/30 11:50:21;;;;;;;21.58;3.95;;;9.00;99.90;;;;;;4970663;28;20023;-71
2022/01/30 11:52:50;;;;;;;16.42;4.40;;;8.60;99.90;;;;;;4970340;28;20027;-73
2022/01/30 11:55:38;;;;;;;23.20;4.13;;;8.30;99.90;;;;;;4986155;28;20046;-73
2022/01/30 11:58:04;;;;;;;23.20;3.50;;;8.60;99.90;;;;;;4987228;28;20031;-72
2022/01/30 12:00:39;;;;;;;19.38;2.50;;;9.20;99.90;;;;;;4986427;28;20538;-69
2022/01/30 12:03:25;;;;;;;18.83;4.00;;;9.30;99.90;;;;;;4987054;28;20085;-69
2022/01/30 12:05:52;;;;;;;17.60;3.28;;;9.50;99.90;;;;;;4987623;28;20031;-72
2022/01/30 12:08:44;;;;;;;19.90;3.92;;;9.60;99.90;;;;;;4987480;28;20157;-69
2022/01/30 12:11:39;;;;;;;26.92;3.58;;;9.50;99.90;;;;;;4987814;28;20090;-69
2022/01/30 12:14:07;;;;;;;14.45;2.78;;;9.00;99.90;;;;;;4987311;28;20027;-69
2022/01/30 12:16:52;;;;;;;17.92;3.42;;;8.60;99.90;;;;;;4987153;28;20062;-71
2022/01/30 12:19:47;;;;;;;;;;;8.20;99.90;;;;;;4979870;28;20049;-72
2022/01/30 12:22:17;;;;;;;15.43;2.95;;;8.00;99.90;;;;;;4967417;28;19937;-72
2022/01/30 12:24:59;;;;;;;22.30;3.55;;;7.60;99.90;;;;;;4987473;28;20034;-71
2022/01/30 12:27:49;;;;;;;16.42;3.08;;;7.60;99.90;;;;;;4985877;28;20034;-71
2022/01/30 12:30:39;;;;;;;31.38;3.42;;;7.40;99.90;;;;;;4979137;28;20022;-69
2022/01/30 12:33:31;;;;;;;23.77;3.17;;;7.30;99.90;;;;;;4986440;28;20062;-69
2022/01/30 12:35:57;;;;;;;14.20;3.72;;;7.20;99.90;;;;;;4967996;28;20032;-71
2022/01/30 12:38:30;;;;;;;16.05;3.05;;;7.40;99.90;;;;;;4967508;28;20023;-70
2022/01/30 12:40:56;;;;;;;17.93;4.47;;;8.00;99.90;;;;;;4967484;28;20543;-71
2022/01/30 12:43:32;;;;;;;7.78;2.63;;;8.50;99.90;;;;;;4967473;28;20301;-70
2022/01/30 12:46:07;;;;;;;13.57;3.25;;;8.80;99.90;;;;;;4967553;28;20030;-69
2022/01/30 12:48:33;;;;;;;23.15;3.55;;;9.20;99.90;;;;;;4967863;28;20027;-69
2022/01/30 12:51:04;;;;;;;18.40;3.13;;;9.60;99.90;;;;;;4967514;28;20027;-70
2022/01/30 12:53:34;;;;;;;24.83;3.10;;;9.90;99.90;;;;;;4971894;28;20039;-70
2022/01/30 12:56:02;;;;;;;17.25;3.10;;;10.00;99.90;;;;;;4974914;28;20038;-71
2022/01/30 12:58:40;;;;;;;13.05;3.17;;;9.80;99.90;;;;;;4956453;28;20033;-70
2022/01/30 13:01:14;;;;;;;17.95;3.20;;;9.60;99.90;;;;;;4975285;28;20031;-71
2022/01/30 13:03:41;;;;;;;;;;;9.20;99.90;;;;;;4977915;28;20038;-72
2022/01/30 13:06:08;;;;;;;13.95;2.60;;;9.00;99.90;;;;;;4978429;28;19917;-71
2022/01/30 13:08:49;;;;;;;14.57;3.20;;;8.70;99.90;;;;;;4986298;28;20027;-71
2022/01/30 13:11:23;;;;;;;28.40;3.70;;;8.50;99.90;;;;;;4986684;28;20038;-71
2022/01/30 13:13:55;;;;;;;;;;;8.30;99.90;;;;;;4986724;28;20090;-72
2022/01/30 13:16:32;;;;;;;6.45;2.80;;;8.30;99.90;;;;;;4985562;28;19906;-72
2022/01/30 13:18:59;;;;;;;16.33;2.65;;;8.10;99.90;;;;;;4984888;28;20030;-68
2022/01/30 13:21:27;;;;;;;29.30;3.83;;;8.00;99.90;;;;;;4982948;28;20345;-68
2022/01/30 13:23:53;;;;;;;18.38;4.53;;;7.90;99.90;;;;;;4985556;28;20133;-69
2022/01/30 13:26:34;;;;;;;30.85;6.05;;;7.90;99.90;;;;;;4985348;28;20027;-71
2022/01/30 13:29:07;;;;;;;12.30;4.03;;;7.70;99.90;;;;;;4984827;28;20058;-67
2022/01/30 13:31:37;;;;;;;32.70;4.50;;;7.70;99.90;;;;;;4977422;28;20031;-67
2022/01/30 13:34:21;;;;;;;28.98;3.58;;;7.60;99.90;;;;;;4985085;28;20050;-70
2022/01/30 13:37:02;;;;;;;10.23;3.20;;;7.40;99.90;;;;;;4985169;28;20066;-70
2022/01/30 13:40:20;;;;;;;21.42;4.32;;;7.50;99.90;;;;;;4976472;28;20133;-71
2022/01/30 13:48:06;;;;;;;17.20;3.28;;;7.70;99.90;;;;;;4984577;28;20030;-71
2022/01/30 13:50:39;;;;;;;16.05;2.55;;;7.80;99.90;;;;;;4980791;28;20427;-70
2022/01/30 13:53:15;;;;;;;18.38;2.63;;;7.60;99.90;;;;;;4975096;28;20110;-71
2022/01/30 13:56:05;;;;;;;30.70;3.55;;;7.50;99.90;;;;;;4976457;28;20031;-73
2022/01/30 13:58:37;;;;;;;14.52;3.45;;;7.40;99.90;;;;;;4974456;28;20054;-69